createdAt,value
2023-03-19T00:00:32.595Z,21.00
2023-03-19T00:02:59.944Z,16.50
2023-03-19T00:05:27.362Z,18.67
2023-03-19T00:07:54.409Z,20.27
2023-03-19T00:10:21.977Z,20.65
2023-03-19T00:12:49.073Z,15.35
2023-03-19T00:15:16.260Z,17.15
2023-03-19T00:17:44.000Z,18.15
2023-03-19T00:20:12.795Z,16.30
2023-03-19T00:22:40.420Z,16.50
2023-03-19T00:25:10.155Z,20.75
2023-03-19T00:27:38.618Z,17.95
2023-03-19T00:30:07.636Z,13.38
2023-03-19T00:32:35.941Z,15.95
2023-03-19T00:35:06.456Z,14.43
2023-03-19T00:37:34.600Z,15.90
2023-03-19T00:40:02.000Z,17.25
2023-03-19T00:42:29.476Z,17.75
2023-03-19T00:44:57.006Z,19.23
2023-03-19T00:47:26.101Z,15.07
2023-03-19T00:49:53.350Z,13.93
2023-03-19T00:52:20.796Z,21.73
2023-03-19T00:54:48.049Z,14.57
2023-03-19T00:57:15.090Z,18.42
2023-03-19T00:59:42.300Z,17.60
2023-03-19T01:02:09.306Z,16.20
2023-03-19T01:04:36.697Z,17.50
2023-03-19T01:07:03.827Z,18.77
2023-03-19T01:09:31.326Z,20.13
2023-03-19T01:11:58.665Z,19.67
2023-03-19T01:14:25.961Z,12.27
2023-03-19T01:16:53.016Z,15.98
2023-03-19T01:19:20.225Z,17.52
2023-03-19T01:21:47.300Z,14.40
2023-03-19T01:24:19.190Z,18.20
2023-03-19T01:26:51.054Z,14.38
2023-03-19T01:29:28.334Z,15.55
2023-03-19T01:31:58.075Z,14.10
2023-03-19T01:34:43.864Z,17.95
2023-03-19T01:37:14.578Z,16.42
2023-03-19T01:39:43.406Z,17.13
2023-03-19T01:42:14.038Z,17.58
2023-03-19T01:44:57.177Z,19.92
2023-03-19T01:47:41.706Z,17.30
2023-03-19T01:50:26.032Z,16.75
2023-03-19T01:53:21.719Z,14.38
2023-03-19T01:55:56.013Z,18.10
2023-03-19T01:58:51.684Z,13.82
2023-03-19T02:02:01.466Z,18.92
2023-03-19T02:04:31.934Z,14.05
2023-03-19T02:07:01.434Z,16.13
2023-03-19T02:09:30.744Z,17.88
2023-03-19T02:11:59.534Z,16.77
2023-03-19T02:14:26.794Z,13.65
2023-03-19T02:16:55.349Z,13.35
2023-03-19T02:19:33.874Z,21.63
2023-03-19T02:22:02.847Z,14.52
2023-03-19T02:24:36.149Z,15.88
2023-03-19T02:27:09.307Z,17.77
2023-03-19T02:32:07.498Z,15.18
2023-03-19T02:34:38.082Z,21.15
2023-03-19T02:37:24.395Z,18.20
2023-03-19T02:40:00.512Z,20.73
2023-03-19T02:42:29.513Z,15.05
2023-03-19T02:44:58.082Z,17.40
2023-03-19T02:47:26.722Z,12.52
2023-03-19T02:49:54.530Z,12.20
2023-03-19T02:52:22.277Z,12.43
2023-03-19T02:54:49.629Z,14.25
2023-03-19T02:57:16.652Z,17.08
2023-03-19T02:59:43.864Z,17.30
2023-03-19T03:02:12.068Z,16.30
2023-03-19T03:04:39.152Z,18.08
2023-03-19T03:07:07.653Z,15.25
2023-03-19T03:09:35.934Z,13.93
2023-03-19T03:12:03.028Z,15.93
2023-03-19T03:14:30.287Z,18.50
2023-03-19T03:16:57.583Z,17.60
2023-03-19T03:19:24.757Z,17.67
2023-03-19T03:21:52.199Z,14.52
2023-03-19T03:24:19.282Z,14.05
2023-03-19T03:26:46.470Z,14.80
2023-03-19T03:29:15.581Z,18.35
2023-03-19T03:31:42.931Z,18.98
2023-03-19T03:34:10.302Z,14.65
2023-03-19T03:36:37.700Z,16.73
2023-03-19T03:39:05.329Z,17.33
2023-03-19T03:41:33.254Z,13.90
2023-03-19T03:44:01.685Z,14.40
2023-03-19T03:46:30.858Z,18.35
2023-03-19T03:48:58.070Z,14.68
2023-03-19T03:51:25.539Z,17.52
2023-03-19T03:53:52.619Z,16.15
2023-03-19T03:56:19.894Z,16.92
2023-03-19T03:58:47.794Z,17.92
2023-03-19T04:01:18.872Z,14.88
2023-03-19T04:03:50.522Z,15.32
2023-03-19T04:06:19.978Z,13.10
2023-03-19T04:08:52.598Z,16.60
2023-03-19T04:11:20.734Z,14.20
2023-03-19T04:13:47.801Z,17.85
2023-03-19T04:16:16.396Z,14.55
2023-03-19T04:18:43.424Z,15.27
2023-03-19T04:21:10.641Z,12.73
2023-03-19T04:23:37.784Z,14.32
2023-03-19T04:26:07.175Z,13.43
2023-03-19T04:28:34.763Z,12.63
2023-03-19T04:31:04.924Z,23.45
2023-03-19T04:33:34.930Z,16.83
2023-03-19T04:36:03.387Z,14.95
2023-03-19T04:38:31.242Z,15.43
2023-03-19T04:40:58.544Z,16.08
2023-03-19T04:43:26.046Z,18.98
2023-03-19T04:45:53.768Z,11.80
2023-03-19T04:48:23.283Z,15.35
2023-03-19T04:50:53.436Z,12.68
2023-03-19T04:53:20.828Z,13.63
2023-03-19T04:55:48.771Z,14.20
2023-03-19T04:58:20.950Z,15.93
2023-03-19T05:00:55.804Z,14.15
2023-03-19T05:03:34.039Z,18.08
2023-03-19T05:06:01.137Z,17.85
2023-03-19T05:08:28.340Z,13.55
2023-03-19T05:10:55.556Z,17.88
2023-03-19T05:13:22.648Z,16.15
2023-03-19T05:15:55.067Z,15.38
2023-03-19T05:18:22.948Z,18.30
2023-03-19T05:20:50.067Z,17.92
2023-03-19T05:23:21.722Z,18.27
2023-03-19T05:26:04.450Z,19.48
2023-03-19T05:28:51.912Z,21.73
2023-03-19T05:31:30.240Z,18.63
2023-03-19T05:33:57.423Z,15.68
2023-03-19T05:36:25.238Z,16.50
2023-03-19T05:39:06.301Z,18.40
2023-03-19T05:41:36.861Z,19.05
2023-03-19T05:44:07.094Z,13.73
2023-03-19T05:49:30.804Z,13.02
2023-03-19T05:51:58.430Z,18.05
2023-03-19T05:54:25.893Z,15.23
2023-03-19T05:57:07.984Z,15.18
2023-03-19T05:59:44.185Z,13.23
2023-03-19T06:02:25.604Z,11.45
2023-03-19T06:05:03.137Z,10.60
2023-03-19T06:07:31.503Z,11.40
2023-03-19T06:09:59.826Z,13.10
2023-03-19T06:12:27.734Z,14.07
2023-03-19T06:14:57.330Z,9.88
2023-03-19T06:17:48.500Z,13.23
2023-03-19T06:20:18.961Z,11.18
2023-03-19T06:22:46.881Z,11.35
2023-03-19T06:25:14.216Z,12.43
2023-03-19T06:27:44.463Z,12.48
2023-03-19T06:30:24.917Z,11.30
2023-03-19T06:32:53.099Z,15.68
2023-03-19T06:35:21.799Z,10.77
2023-03-19T06:37:50.438Z,13.55
2023-03-19T06:40:17.731Z,9.70
2023-03-19T06:42:46.715Z,13.10
2023-03-19T06:45:16.804Z,15.43
2023-03-19T06:47:43.976Z,19.23
2023-03-19T06:50:12.475Z,16.73
2023-03-19T06:52:40.708Z,19.85
2023-03-19T06:55:08.838Z,22.35
2023-03-19T06:57:36.537Z,20.88
2023-03-19T07:00:05.168Z,16.67
2023-03-19T07:02:32.159Z,13.95
2023-03-19T07:04:59.767Z,16.85
2023-03-19T07:07:26.910Z,19.52
2023-03-19T07:09:54.057Z,20.58
2023-03-19T07:12:21.281Z,18.65
2023-03-19T07:14:48.425Z,16.73
2023-03-19T07:17:15.625Z,19.00
2023-03-19T07:19:42.887Z,14.68
2023-03-19T07:22:09.926Z,12.63
2023-03-19T07:24:37.284Z,9.90
2023-03-19T07:27:04.426Z,10.75
2023-03-19T07:29:31.554Z,9.27
2023-03-19T07:31:58.726Z,12.60
2023-03-19T07:34:26.415Z,8.35
2023-03-19T07:36:54.150Z,10.73
2023-03-19T07:39:21.619Z,12.57
2023-03-19T07:41:49.289Z,9.57
2023-03-19T07:44:16.716Z,8.77
2023-03-19T07:46:44.081Z,8.60
2023-03-19T07:49:11.278Z,8.82
2023-03-19T07:51:38.442Z,10.50
2023-03-19T07:54:05.673Z,13.63
2023-03-19T07:56:33.133Z,10.85
2023-03-19T07:59:00.159Z,15.40
2023-03-19T08:01:27.286Z,12.55
2023-03-19T08:03:54.452Z,14.85
2023-03-19T08:06:22.171Z,14.68
2023-03-19T08:08:49.338Z,13.85
2023-03-19T08:11:16.480Z,14.13
2023-03-19T08:13:43.931Z,10.07
2023-03-19T08:16:11.744Z,19.92
2023-03-19T08:18:38.883Z,13.10
2023-03-19T08:21:06.133Z,12.63
2023-03-19T08:23:33.387Z,16.65
2023-03-19T08:26:00.376Z,12.30
2023-03-19T08:28:27.430Z,10.88
2023-03-19T08:30:56.053Z,16.08
2023-03-19T08:33:23.528Z,10.80
2023-03-19T08:35:50.699Z,15.00
2023-03-19T08:38:18.119Z,14.27
2023-03-19T08:40:45.285Z,13.13
2023-03-19T08:43:12.370Z,12.65
2023-03-19T08:45:39.585Z,15.25
2023-03-19T08:48:06.592Z,9.68
2023-03-19T08:50:34.029Z,13.02
2023-03-19T08:53:01.319Z,13.10
2023-03-19T08:55:28.432Z,12.68
2023-03-19T08:57:55.758Z,12.13
2023-03-19T09:00:23.622Z,11.48
2023-03-19T09:02:50.584Z,11.52
2023-03-19T09:05:20.395Z,14.65
2023-03-19T09:07:47.522Z,11.15
2023-03-19T09:10:14.602Z,10.63
2023-03-19T09:12:42.988Z,11.32
2023-03-19T09:15:10.236Z,16.60
2023-03-19T09:17:37.559Z,10.80
2023-03-19T09:20:07.201Z,9.95
2023-03-19T09:22:34.421Z,13.73
2023-03-19T09:25:01.544Z,9.57
2023-03-19T09:27:28.889Z,10.77
2023-03-19T09:29:56.092Z,12.23
2023-03-19T09:32:23.064Z,9.15
2023-03-19T09:34:50.103Z,14.15
2023-03-19T09:37:17.388Z,9.20
2023-03-19T09:39:44.835Z,10.40
2023-03-19T09:42:45.492Z,9.35
2023-03-19T09:45:16.674Z,10.32
2023-03-19T09:47:45.758Z,10.15
2023-03-19T09:50:17.766Z,11.02
2023-03-19T09:52:54.315Z,14.05
2023-03-19T09:55:24.338Z,16.40
2023-03-19T09:57:53.800Z,8.60
2023-03-19T10:00:26.029Z,13.63
2023-03-19T10:03:12.599Z,12.77
2023-03-19T10:05:48.765Z,11.30
2023-03-19T10:08:42.958Z,11.02
2023-03-19T10:11:24.964Z,8.90
2023-03-19T10:14:14.726Z,9.30
2023-03-19T10:16:45.610Z,8.70
2023-03-19T10:19:16.579Z,15.23
2023-03-19T10:21:53.857Z,10.77
2023-03-19T10:24:35.061Z,14.73
2023-03-19T10:27:12.283Z,9.70
2023-03-19T10:29:41.236Z,14.45
2023-03-19T10:32:41.568Z,12.63
2023-03-19T10:35:28.157Z,12.35
2023-03-19T10:37:55.925Z,10.48
2023-03-19T10:40:34.734Z,9.25
2023-03-19T10:43:21.151Z,14.18
2023-03-19T10:45:49.518Z,13.25
2023-03-19T10:48:18.084Z,12.05
2023-03-19T10:50:45.236Z,11.48
2023-03-19T10:53:15.061Z,12.77
2023-03-19T10:56:00.312Z,12.27
2023-03-19T10:58:29.984Z,10.30
2023-03-19T11:01:10.013Z,13.30
2023-03-19T11:03:38.632Z,10.50
2023-03-19T11:06:23.980Z,11.68
2023-03-19T11:09:26.207Z,13.00
2023-03-19T11:12:07.949Z,9.77
2023-03-19T11:14:43.928Z,11.38
2023-03-19T11:17:26.087Z,12.23
2023-03-19T11:19:56.365Z,11.93
2023-03-19T11:22:36.893Z,26.42
2023-03-19T11:25:14.803Z,22.25
2023-03-19T11:27:42.282Z,10.18
2023-03-19T11:30:20.133Z,13.60
2023-03-19T11:32:49.858Z,21.20
2023-03-19T11:35:33.212Z,17.52
2023-03-19T11:40:53.114Z,28.50
2023-03-19T11:43:39.188Z,20.15
2023-03-19T11:46:28.200Z,18.33
2023-03-19T11:49:29.071Z,12.48
2023-03-19T11:52:18.636Z,12.63
2023-03-19T11:55:04.779Z,15.10
2023-03-19T11:57:46.547Z,15.55
2023-03-19T12:00:39.526Z,16.73
2023-03-19T12:03:43.641Z,11.90
2023-03-19T12:09:36.667Z,15.60
2023-03-19T12:12:30.058Z,11.35
2023-03-19T12:15:18.399Z,16.83
2023-03-19T12:18:10.052Z,17.10
2023-03-19T12:21:08.008Z,10.60
2023-03-19T12:24:04.515Z,11.25
2023-03-19T12:26:56.661Z,13.48
2023-03-19T12:29:35.420Z,12.38
2023-03-19T12:32:17.582Z,13.05
2023-03-19T12:35:14.065Z,6.97
2023-03-19T12:37:52.516Z,10.23
2023-03-19T12:40:42.216Z,12.88
2023-03-19T12:43:26.654Z,10.57
2023-03-19T12:46:13.801Z,10.38
2023-03-19T12:48:52.244Z,12.63
2023-03-19T12:51:24.449Z,13.48
2023-03-19T12:53:59.867Z,8.45
2023-03-19T12:56:54.724Z,12.15
2023-03-19T12:59:42.940Z,12.57
2023-03-19T13:02:20.891Z,9.50
2023-03-19T13:05:07.516Z,8.45
2023-03-19T13:07:50.534Z,15.88
2023-03-19T13:10:22.999Z,12.30
2023-03-19T13:12:54.382Z,10.87
2023-03-19T13:15:33.178Z,14.60
2023-03-19T13:18:09.229Z,12.73
2023-03-19T13:20:49.898Z,11.25
2023-03-19T13:23:38.653Z,10.32
2023-03-19T13:26:10.914Z,15.43
2023-03-19T13:28:53.501Z,13.10
2023-03-19T13:31:28.358Z,16.67
2023-03-19T13:34:05.432Z,14.48
2023-03-19T13:36:39.754Z,12.43
2023-03-19T13:39:18.380Z,13.35
2023-03-19T13:42:09.331Z,13.07
2023-03-19T13:44:49.121Z,16.45
2023-03-19T13:47:36.635Z,14.40
2023-03-19T13:50:08.774Z,13.27
2023-03-19T13:52:51.604Z,11.27
2023-03-19T13:55:24.928Z,13.67
2023-03-19T14:00:45.419Z,7.35
2023-03-19T14:03:33.482Z,12.05
2023-03-19T14:06:01.932Z,11.52
2023-03-19T14:08:35.329Z,14.90
2023-03-19T14:13:43.212Z,9.43
2023-03-19T14:16:25.469Z,7.97
2023-03-19T14:18:58.329Z,8.68
2023-03-19T14:21:46.398Z,7.88
2023-03-19T14:27:31.295Z,9.77
2023-03-19T14:30:09.689Z,11.98
2023-03-19T14:32:42.946Z,9.43
2023-03-19T14:40:44.298Z,8.25
2023-03-19T14:43:34.998Z,7.18
2023-03-19T14:46:05.609Z,8.55
2023-03-19T14:49:03.776Z,8.65
2023-03-19T14:51:48.681Z,9.00
2023-03-19T14:54:38.222Z,6.75
2023-03-19T14:57:27.226Z,9.02
2023-03-19T14:59:55.422Z,9.55
2023-03-19T15:02:41.352Z,6.90
2023-03-19T15:05:31.935Z,5.57
2023-03-19T15:08:05.023Z,10.25
2023-03-19T15:10:59.236Z,9.48
2023-03-19T15:14:12.062Z,6.90
2023-03-19T15:16:48.048Z,9.93
2023-03-19T15:19:22.907Z,8.40
2023-03-19T15:21:53.036Z,6.18
2023-03-19T15:24:20.651Z,8.73
2023-03-19T15:26:48.190Z,10.55
2023-03-19T15:29:18.610Z,9.32
2023-03-19T15:31:53.807Z,8.98
2023-03-19T15:34:29.787Z,9.93
2023-03-19T15:37:15.520Z,7.77
2023-03-19T15:39:52.092Z,7.82
2023-03-19T15:42:22.297Z,9.85
2023-03-19T15:44:57.692Z,9.65
2023-03-19T15:47:28.614Z,9.45
2023-03-19T15:50:02.364Z,8.60
2023-03-19T15:52:33.981Z,11.80
2023-03-19T15:55:03.228Z,7.03
2023-03-19T15:57:31.176Z,7.65
2023-03-19T16:00:00.856Z,9.27
2023-03-19T16:02:31.894Z,8.20
2023-03-19T16:05:21.410Z,8.20
2023-03-19T16:07:56.985Z,10.13
2023-03-19T16:10:39.284Z,5.93
2023-03-19T16:13:24.982Z,8.20
2023-03-19T16:16:19.793Z,7.43
2023-03-19T16:18:51.646Z,7.97
2023-03-19T16:21:39.061Z,7.45
2023-03-19T16:24:08.989Z,6.43
2023-03-19T16:26:48.076Z,7.38
2023-03-19T16:29:24.385Z,12.73
2023-03-19T16:31:54.382Z,7.35
2023-03-19T16:34:32.536Z,6.72
2023-03-19T16:37:01.168Z,8.05
2023-03-19T16:39:31.011Z,8.90
2023-03-19T16:42:13.269Z,9.25
2023-03-19T16:44:42.330Z,11.18
2023-03-19T16:47:14.292Z,11.00
2023-03-19T16:49:41.899Z,7.53
2023-03-19T16:52:20.002Z,8.50
2023-03-19T16:54:47.900Z,6.53
2023-03-19T16:57:17.280Z,5.32
2023-03-19T16:59:47.171Z,10.30
2023-03-19T17:02:17.282Z,8.23
2023-03-19T17:04:45.599Z,9.90
2023-03-19T17:07:14.371Z,5.13
2023-03-19T17:09:42.284Z,7.00
2023-03-19T17:12:17.470Z,6.20
2023-03-19T17:14:46.660Z,7.10
2023-03-19T17:17:23.793Z,5.88
2023-03-19T17:19:52.336Z,7.78
2023-03-19T17:22:21.066Z,5.43
2023-03-19T17:24:49.022Z,9.50
2023-03-19T17:27:17.131Z,7.47
2023-03-19T17:29:45.035Z,4.38
2023-03-19T17:32:19.736Z,4.82
2023-03-19T17:34:48.006Z,7.13
2023-03-19T17:37:16.193Z,10.32
2023-03-19T17:39:46.059Z,11.80
2023-03-19T17:42:20.292Z,7.90
2023-03-19T17:44:48.057Z,6.60
2023-03-19T17:47:18.160Z,7.50
2023-03-19T17:49:47.576Z,5.75
2023-03-19T17:52:19.779Z,4.03
2023-03-19T17:54:47.284Z,7.00
2023-03-19T17:57:15.661Z,3.90
2023-03-19T17:59:42.865Z,6.20
2023-03-19T18:02:37.017Z,5.18
2023-03-19T18:05:04.622Z,5.57
2023-03-19T18:07:31.852Z,7.55
2023-03-19T18:09:58.872Z,8.63
2023-03-19T18:12:26.650Z,7.72
2023-03-19T18:14:54.191Z,5.97
2023-03-19T18:17:21.513Z,5.07
2023-03-19T18:19:50.962Z,7.45
2023-03-19T18:22:23.115Z,6.90
2023-03-19T18:24:52.339Z,7.53
2023-03-19T18:27:19.872Z,6.13
2023-03-19T18:29:55.821Z,4.70
2023-03-19T18:32:29.873Z,5.60
2023-03-19T18:34:58.064Z,4.85
2023-03-19T18:37:25.628Z,6.43
2023-03-19T18:39:52.962Z,6.50
2023-03-19T18:42:20.182Z,11.60
2023-03-19T18:44:47.448Z,3.13
2023-03-19T18:47:17.725Z,4.60
2023-03-19T18:49:45.270Z,4.38
2023-03-19T18:52:18.980Z,4.80
2023-03-19T18:54:47.635Z,4.75
2023-03-19T18:57:17.859Z,5.82
2023-03-19T18:59:47.302Z,5.43
2023-03-19T19:02:35.247Z,7.35
2023-03-19T19:05:02.612Z,7.53
2023-03-19T19:07:29.894Z,8.32
2023-03-19T19:09:57.595Z,9.15
2023-03-19T19:12:27.019Z,9.60
2023-03-19T19:15:01.563Z,9.02
2023-03-19T19:17:38.071Z,6.68
2023-03-19T19:20:16.593Z,6.20
2023-03-19T19:22:44.393Z,6.38
2023-03-19T19:25:16.719Z,11.63
2023-03-19T19:27:48.505Z,6.13
2023-03-19T19:30:21.870Z,8.85
2023-03-19T19:35:30.274Z,8.18
2023-03-19T19:37:58.644Z,7.53
2023-03-19T19:40:32.116Z,9.13
2023-03-19T19:43:01.308Z,8.85
2023-03-19T19:45:38.029Z,11.32
2023-03-19T19:48:14.857Z,10.07
2023-03-19T19:50:43.875Z,8.20
2023-03-19T19:53:11.507Z,8.70
2023-03-19T19:55:42.653Z,8.48
2023-03-19T19:58:22.955Z,12.50
2023-03-19T20:01:03.484Z,12.60
2023-03-19T20:03:34.424Z,7.82
2023-03-19T20:06:03.641Z,9.93
2023-03-19T20:08:31.852Z,13.98
2023-03-19T20:11:03.015Z,17.45
2023-03-19T20:13:38.028Z,14.25
2023-03-19T20:16:07.398Z,19.65
2023-03-19T20:18:36.269Z,20.92
2023-03-19T20:21:04.860Z,19.52
2023-03-19T20:23:33.780Z,20.55
2023-03-19T20:26:02.827Z,11.82
2023-03-19T20:28:35.838Z,8.00
2023-03-19T20:31:05.630Z,12.65
2023-03-19T20:33:35.110Z,8.00
2023-03-19T20:36:05.069Z,10.50
2023-03-19T20:38:36.974Z,11.90
2023-03-19T20:41:15.020Z,10.35
2023-03-19T20:43:43.283Z,9.27
2023-03-19T20:46:14.503Z,8.48
2023-03-19T20:48:43.301Z,9.20
2023-03-19T20:51:20.742Z,10.48
2023-03-19T20:53:51.622Z,8.85
2023-03-19T20:56:22.981Z,12.65
2023-03-19T20:58:50.966Z,7.90
2023-03-19T21:01:19.963Z,28.23
2023-03-19T21:03:49.189Z,13.30
2023-03-19T21:06:26.866Z,9.32
2023-03-19T21:08:58.508Z,7.47
2023-03-19T21:11:42.051Z,8.93
2023-03-19T21:14:27.691Z,11.95
2023-03-19T21:16:56.863Z,8.63
2023-03-19T21:19:25.161Z,12.50
2023-03-19T21:21:54.370Z,12.80
2023-03-19T21:24:22.639Z,11.55
2023-03-19T21:26:51.173Z,9.65
2023-03-19T21:29:33.790Z,11.38
2023-03-19T21:32:02.103Z,9.65
2023-03-19T21:34:30.400Z,8.27
2023-03-19T21:36:58.539Z,9.50
2023-03-19T21:39:26.262Z,9.30
2023-03-19T21:41:54.581Z,11.73
2023-03-19T21:44:25.385Z,10.05
2023-03-19T21:46:53.332Z,14.57
2023-03-19T21:49:20.730Z,10.57
2023-03-19T21:51:48.073Z,10.80
2023-03-19T21:54:15.887Z,9.20
2023-03-19T21:56:45.097Z,10.02
2023-03-19T21:59:23.032Z,9.52
2023-03-19T22:01:50.234Z,13.10
2023-03-19T22:04:19.381Z,11.02
2023-03-19T22:06:46.967Z,9.40
2023-03-19T22:09:13.977Z,9.95
2023-03-19T22:11:42.730Z,9.45
2023-03-19T22:14:26.952Z,9.15
2023-03-19T22:16:55.968Z,7.45
2023-03-19T22:19:23.996Z,10.48
2023-03-19T22:21:51.083Z,7.72
2023-03-19T22:24:18.221Z,8.68
2023-03-19T22:26:47.251Z,7.88
2023-03-19T22:29:18.667Z,9.55
2023-03-19T22:31:48.935Z,11.75
2023-03-19T22:34:18.667Z,9.68
2023-03-19T22:36:46.221Z,9.57
2023-03-19T22:39:13.949Z,10.13
2023-03-19T22:41:45.770Z,8.57
2023-03-19T22:44:30.543Z,7.65
2023-03-19T22:47:00.012Z,9.73
2023-03-19T22:49:28.410Z,12.02
2023-03-19T22:51:56.583Z,7.88
2023-03-19T22:54:23.845Z,12.45
2023-03-19T22:56:50.874Z,11.18
2023-03-19T22:59:18.840Z,8.77
2023-03-19T23:01:47.495Z,10.02
2023-03-19T23:04:21.028Z,9.35
2023-03-19T23:06:48.519Z,9.80
2023-03-19T23:09:22.437Z,6.07
2023-03-19T23:11:49.655Z,12.35
2023-03-19T23:14:28.376Z,8.75
2023-03-19T23:19:31.534Z,13.10
2023-03-19T23:22:00.327Z,10.15
2023-03-19T23:24:28.046Z,16.60
2023-03-19T23:26:57.158Z,17.00
2023-03-19T23:29:29.919Z,18.67
2023-03-19T23:31:58.760Z,14.70
2023-03-19T23:34:26.897Z,10.52
2023-03-19T23:36:54.516Z,12.15
2023-03-19T23:39:21.555Z,14.07
2023-03-19T23:41:53.713Z,10.63
2023-03-19T23:44:22.116Z,7.78
2023-03-19T23:46:51.710Z,10.55
2023-03-19T23:49:30.293Z,16.77
2023-03-19T23:51:57.687Z,9.25
2023-03-19T23:54:32.405Z,7.88
2023-03-19T23:57:03.297Z,11.85
2023-03-19T23:59:34.517Z,8.88
